Springfield, IL (62761)

10:30 AM CDT on April 25, 2015 (GMT -0500)
Springfield West Side | | Change Station
CLOSE
Current Station
Personal Weather Station
Location: Springfield, IL
Elevation: 604 ft
Nearby Weather Stations

Elev 604 ft 39.79 °N, 89.69 °W | Updated 1 minute ago

Overcast
Overcast
51.3 °F
Feels Like 51.3 °F
N
3.4
Wind Variable Wind from NE
Gusts 4.3 mph

Today
High -- | Low -- °F
--% Chance of Precip.
Yesterday
High -- | Low -- °F
Precip. -- in
6:07 AM 7:46 PM
Waxing Crescent, 46% visible
Pressure 29.62 in
Visibility 2.0 miles
Clouds Mostly Cloudy 500 ft
Overcast 900 ft
Dew Point 51 °F
Humidity 99%
Rainfall 0.32 in
Snow Depth Not available.
UV 2 out of 12
Pollen 10.20 out of 12
Air Quality Not available.
Flu Activity Regional
SPECI KSPI 251511Z 02010KT 2SM -RA BR BKN005 OVC009 11/09 A2962 RMK AO2 LTG DSNT N-SE TSE06 P0000 T01060094

More Conditions Fewer Conditions

Pressure 29.62 in
Visibility 2.0 miles
Clouds Mostly Cloudy 500 ft
Overcast 900 ft
Dew Point 51 °F
Humidity 99%
Rainfall 0.32 in
Snow Depth Not available.
UV 2 out of 12
Pollen 10.20 out of 12
Air Quality Not available.
Flu Activity Regional
SPECI KSPI 251511Z 02010KT 2SM -RA BR BKN005 OVC009 11/09 A2962 RMK AO2 LTG DSNT N-SE TSE06 P0000 T01060094

More Conditions Fewer Conditions

10-Day Weather Forecast

Almanac

Astronomy

Apr. 25, 2015 Rise Set
Actual Time
Civil Twilight
Nautical Twilight
Astronomical Twilight
Moon
Length of Visible Light
Length of Day
Tomorrow will be .
, % of the Moon is Illuminated

Today's Extremes

State Highs State Lows

Community

WunderPhotos

Upload Photos

1,816,714 photos uploaded!

WunderBlogs® & News

Nearby

Air Quality

  Air Quality AQ Index Pollutant
Not available.

Snow Depth

Station Depth Elevation

Earthquake Activity

City Distance Mag. Time & Date
Minimum magnitude displayed is 2.5.

Coastal Water Temperatures

Place Temperature

Stations

Nearby Weather Stations

Station Location Temp. Windchill Dew Point Humidity Wind Precip. Elev Updated Type